Time;durP1;ratioP1;P1;durP2;ratioP2;P2;SDS_P1;SDS_P2;PMS_P1;PMS_P2;Temp;Humidity;BMP_temperature;BMP_pressure;BME280_temperature;BME280_humidity;BME280_pressure;Samples;Min_cycle;Max_cycle;Signal;HPM_P1;HPM_P2
2023/07/23 00:01:40;;;;;;;;;;;;;;;24.96;61.90;100465.88;7393198;19;2074;-41
2023/07/23 00:04:08;;;;;;;;;;;;;;;25.01;61.74;100470.75;7395706;19;1418;-40
2023/07/23 00:06:37;;;;;;;;;;;;;;;24.91;62.38;100476.41;7393286;19;1858;-40
2023/07/23 00:09:06;;;;;;;;;;;;;;;24.91;61.83;100492.63;7393582;19;1389;-40
2023/07/23 00:11:34;;;;;;;;;;;;;;;24.99;61.01;100489.03;7393265;19;1520;-41
2023/07/23 00:14:02;;;;;;;;;;;;;;;24.98;60.87;100493.59;7393373;19;1472;-40
2023/07/23 00:16:33;;;;;;;;;;;;;;;24.95;61.37;100498.53;7393478;19;1845;-40
2023/07/23 00:19:01;;;;;;;;;;;;;;;25.05;61.86;100492.84;7393212;19;1523;-41
2023/07/23 00:21:30;;;;;;;;;;;;;;;25.15;61.75;100507.81;7392763;19;1566;-40
2023/07/23 00:23:58;;;;;;;;;;;;;;;25.04;61.66;100508.25;7400923;19;1354;-41
2023/07/23 00:26:28;;;;;;;;;;;;;;;24.95;61.73;100517.47;7402938;19;1914;-41
2023/07/23 00:28:56;;;;;;;;;;;;;;;24.89;61.90;100519.03;7400809;19;1583;-41
2023/07/23 00:31:25;;;;;;;;;;;;;;;24.88;61.81;100543.53;7401577;19;1454;-41
2023/07/23 00:33:56;;;;;;;;;;;;;;;24.91;61.98;100552.16;7401729;19;1299;-40
2023/07/23 00:36:24;;;;;;;;;;;;;;;24.93;62.01;100570.88;7398585;19;1922;-40
2023/07/23 00:38:52;;;;;;;;;;;;;;;24.90;61.88;100566.69;7400800;19;1389;-41
2023/07/23 00:41:20;;;;;;;;;;;;;;;24.95;61.79;100577.81;7400911;19;1388;-41
2023/07/23 00:43:49;;;;;;;;;;;;;;;25.01;62.07;100587.09;7401448;19;1608;-40
2023/07/23 00:46:17;;;;;;;;;;;;;;;25.05;61.96;100582.13;7399961;19;1452;-41
2023/07/23 00:48:45;;;;;;;;;;;;;;;25.04;62.06;100588.59;7401247;19;1477;-41
2023/07/23 00:51:16;;;;;;;;;;;;;;;25.24;61.17;100600.63;7400980;19;1582;-41
2023/07/23 00:53:46;;;;;;;;;;;;;;;25.45;61.08;100596.44;7400694;19;1201;-41
2023/07/23 00:56:14;;;;;;;;;;;;;;;25.51;61.14;100601.09;7397308;19;1878;-40
2023/07/23 00:58:43;;;;;;;;;;;;;;;25.44;60.48;100613.69;7400736;19;1545;-40
2023/07/23 01:01:11;;;;;;;;;;;;;;;25.28;61.97;100620.91;7399189;19;1496;-40
2023/07/23 01:03:39;;;;;;;;;;;;;;;25.14;62.27;100627.06;7401522;19;1116;-40
2023/07/23 01:06:08;;;;;;;;;;;;;;;25.04;62.24;100629.16;7399400;19;1475;-41
2023/07/23 01:08:41;;;;;;;;;;;;;;;25.09;61.94;100624.03;7399670;19;1494;-40
2023/07/23 01:11:09;;;;;;;;;;;;;;;25.18;61.99;100614.84;7397980;19;1566;-40
2023/07/23 01:13:39;;;;;;;;;;;;;;;25.32;62.24;100627.63;7400632;19;1317;-40
2023/07/23 01:16:07;;;;;;;;;;;;;;;25.47;61.65;100626.88;7398414;19;1851;-40
2023/07/23 01:18:36;;;;;;;;;;;;;;;25.47;61.20;100653.94;7399999;19;1255;-41
2023/07/23 01:21:04;;;;;;;;;;;;;;;25.33;61.33;100664.50;7396921;19;1497;-41
2023/07/23 01:23:36;;;;;;;;;;;;;;;25.40;61.37;100676.28;7401292;19;1489;-40
2023/07/23 01:26:07;;;;;;;;;;;;;;;25.36;61.41;100717.44;7400417;19;1443;-40
2023/07/23 01:28:35;;;;;;;;;;;;;;;25.34;62.11;100766.34;7400095;19;1542;-41
2023/07/23 01:31:03;;;;;;;;;;;;;;;25.29;62.69;100794.97;7399180;19;1587;-41
2023/07/23 01:33:32;;;;;;;;;;;;;;;25.19;62.54;100801.41;7399472;19;1244;-40
2023/07/23 01:36:01;;;;;;;;;;;;;;;25.18;63.01;100820.53;7396753;19;1857;-41
2023/07/23 01:38:29;;;;;;;;;;;;;;;25.15;63.45;100837.13;7397662;19;1501;-41
2023/07/23 01:41:01;;;;;;;;;;;;;;;25.19;63.51;100842.00;7401875;19;1389;-40
2023/07/23 01:43:29;;;;;;;;;;;;;;;25.21;64.30;100855.38;7400249;19;1483;-40
2023/07/23 01:45:58;;;;;;;;;;;;;;;25.23;64.19;100866.91;7401502;19;1532;-40
2023/07/23 01:48:26;;;;;;;;;;;;;;;25.22;64.82;100865.19;7398610;19;1514;-41
2023/07/23 01:50:51;;;;;;;;;;;;;;;25.23;65.31;100841.66;7398306;19;1446;-41
2023/07/23 01:53:20;;;;;;;;;;;;;;;25.32;65.03;100835.22;7398575;19;1595;-41
2023/07/23 01:55:48;;;;;;;;;;;;;;;25.46;64.22;100817.38;7398358;19;1852;-43
2023/07/23 01:58:19;;;;;;;;;;;;;;;25.36;64.37;100785.94;7397045;19;1591;-41
2023/07/23 02:00:47;;;;;;;;;;;;;;;25.25;65.02;100809.84;7398715;19;1570;-41
2023/07/23 02:03:15;;;;;;;;;;;;;;;25.28;65.08;100818.47;7398974;19;1464;-41
2023/07/23 02:05:44;;;;;;;;;;;;;;;25.29;65.02;100795.81;7397998;19;1478;-41
2023/07/23 02:08:12;;;;;;;;;;;;;;;25.22;65.48;100770.47;7396117;19;1964;-41
2023/07/23 02:10:40;;;;;;;;;;;;;;;25.36;64.92;100779.69;7398167;19;1371;-41
2023/07/23 02:13:09;;;;;;;;;;;;;;;25.34;64.94;100806.94;7395680;19;1563;-41
2023/07/23 02:15:40;;;;;;;;;;;;;;;25.19;65.54;100803.28;7396295;19;1857;-47
2023/07/23 02:18:09;;;;;;;;;;;;;;;25.17;66.28;100810.72;7396588;19;1362;-41
2023/07/23 02:20:37;;;;;;;;;;;;;;;25.20;66.17;100810.38;7396922;19;1450;-41
2023/07/23 02:23:05;;;;;;;;;;;;;;;25.28;65.77;100834.72;7400791;19;2046;-41
2023/07/23 02:25:39;;;;;;;;;;;;;;;25.22;66.04;100865.19;7400536;19;1598;-41
2023/07/23 02:28:08;;;;;;;;;;;;;;;25.22;66.10;100867.91;7397124;19;1862;-41
2023/07/23 02:30:36;;;;;;;;;;;;;;;25.26;66.13;100847.59;7400148;19;1671;-41
2023/07/23 02:33:07;;;;;;;;;;;;;;;25.27;66.13;100805.97;7400573;19;1118;-40
2023/07/23 02:35:37;;;;;;;;;;;;;;;25.44;65.28;100776.13;7396595;19;1872;-40
2023/07/23 02:38:07;;;;;;;;;;;;;;;25.42;65.34;100768.16;7400789;19;1037;-41
2023/07/23 02:40:37;;;;;;;;;;;;;;;25.30;65.92;100788.53;7399161;19;1577;-40
2023/07/23 02:43:09;;;;;;;;;;;;;;;25.28;66.18;100748.09;7397208;19;1779;-41
2023/07/23 02:45:37;;;;;;;;;;;;;;;25.39;65.79;100728.75;7396433;19;1754;-40
2023/07/23 02:48:08;;;;;;;;;;;;;;;25.31;65.61;100700.91;7398312;19;1819;-40
2023/07/23 02:50:36;;;;;;;;;;;;;;;25.25;66.17;100661.88;7397404;19;1928;-40
2023/07/23 02:53:05;;;;;;;;;;;;;;;25.25;66.21;100642.94;7398862;19;1756;-40
2023/07/23 02:55:33;;;;;;;;;;;;;;;25.19;66.16;100644.44;7398507;19;1838;-41
2023/07/23 02:58:03;;;;;;;;;;;;;;;25.22;65.91;100666.78;7400019;19;1397;-41
2023/07/23 03:00:32;;;;;;;;;;;;;;;25.15;66.54;100672.88;7399762;19;1798;-41
2023/07/23 03:03:00;;;;;;;;;;;;;;;25.23;66.28;100669.31;7399635;19;1058;-40
2023/07/23 03:05:31;;;;;;;;;;;;;;;25.11;66.73;100681.53;7396505;19;1595;-41
2023/07/23 03:07:59;;;;;;;;;;;;;;;24.97;67.34;100711.03;7399448;19;1833;-40
2023/07/23 03:10:28;;;;;;;;;;;;;;;24.93;67.58;100715.13;7398894;19;1047;-41
2023/07/23 03:12:56;;;;;;;;;;;;;;;24.92;67.66;100716.13;7396300;19;1578;-40
2023/07/23 03:15:25;;;;;;;;;;;;;;;25.02;67.14;100711.34;7396626;19;1853;-41
2023/07/23 03:17:53;;;;;;;;;;;;;;;25.23;66.70;100723.44;7398873;19;1775;-41
2023/07/23 03:20:22;;;;;;;;;;;;;;;25.18;66.74;100736.63;7395357;19;1807;-40
2023/07/23 03:22:52;;;;;;;;;;;;;;;25.06;66.88;100730.75;7397525;19;1810;-40
2023/07/23 03:25:21;;;;;;;;;;;;;;;25.43;65.88;100714.84;7398835;19;1826;-40
2023/07/23 03:27:49;;;;;;;;;;;;;;;25.48;65.72;100726.00;7398620;19;1097;-40
2023/07/23 03:30:17;;;;;;;;;;;;;;;25.56;65.46;100702.41;7398736;19;1730;-40
2023/07/23 03:32:46;;;;;;;;;;;;;;;25.55;65.27;100708.03;7398197;19;1945;-41
2023/07/23 03:35:14;;;;;;;;;;;;;;;25.39;65.56;100698.16;7394647;19;1815;-41
2023/07/23 03:37:42;;;;;;;;;;;;;;;25.17;66.59;100710.59;7396840;19;1847;-41
2023/07/23 03:40:13;;;;;;;;;;;;;;;25.36;66.18;100712.88;7395402;19;1944;-41
2023/07/23 03:42:42;;;;;;;;;;;;;;;25.47;65.56;100729.75;7395481;19;1664;-40
2023/07/23 03:45:11;;;;;;;;;;;;;;;25.51;65.34;100728.38;7398257;19;1738;-40
2023/07/23 03:47:39;;;;;;;;;;;;;;;25.42;65.78;100715.88;7397778;19;1719;-40
2023/07/23 03:50:08;;;;;;;;;;;;;;;25.40;65.76;100719.59;7397532;19;1814;-40
2023/07/23 03:52:37;;;;;;;;;;;;;;;25.40;66.05;100697.94;7397538;19;1711;-41
2023/07/23 03:55:05;;;;;;;;;;;;;;;25.48;65.73;100709.75;7397953;19;1111;-41
2023/07/23 03:57:36;;;;;;;;;;;;;;;25.32;65.99;100706.13;7395242;19;1861;-41
2023/07/23 04:00:05;;;;;;;;;;;;;;;25.42;65.66;100718.59;7373593;19;12568;-40
2023/07/23 04:02:34;;;;;;;;;;;;;;;25.49;65.75;100722.28;7396277;19;1496;-41
2023/07/23 04:05:02;;;;;;;;;;;;;;;25.16;66.89;100723.28;7393415;19;1454;-41
2023/07/23 04:07:30;;;;;;;;;;;;;;;25.08;67.32;100723.31;7397200;19;1714;-41
2023/07/23 04:09:59;;;;;;;;;;;;;;;25.10;67.63;100740.22;7398770;19;1011;-41
2023/07/23 04:12:27;;;;;;;;;;;;;;;25.07;67.61;100726.19;7396480;19;1630;-41
2023/07/23 04:14:58;;;;;;;;;;;;;;;25.07;68.05;100745.13;7396726;19;1751;-41
2023/07/23 04:17:26;;;;;;;;;;;;;;;25.10;67.63;100717.72;7395836;19;1887;-41
2023/07/23 04:19:54;;;;;;;;;;;;;;;25.19;67.14;100730.22;7393984;19;1480;-41
2023/07/23 04:22:23;;;;;;;;;;;;;;;25.06;67.75;100732.63;7398370;19;949;-41
2023/07/23 04:24:51;;;;;;;;;;;;;;;25.03;67.68;100725.72;7394842;19;1858;-41
2023/07/23 04:27:19;;;;;;;;;;;;;;;25.02;67.32;100724.84;7396423;19;1813;-41
2023/07/23 04:29:47;;;;;;;;;;;;;;;25.00;67.69;100732.31;7396578;19;1858;-40
2023/07/23 04:32:18;;;;;;;;;;;;;;;25.02;67.83;100724.84;7396786;19;1730;-41
2023/07/23 04:34:47;;;;;;;;;;;;;;;25.12;67.22;100746.28;7396883;19;1091;-41
2023/07/23 04:37:15;;;;;;;;;;;;;;;25.11;67.18;100751.88;7394775;19;1944;-41
2023/07/23 04:39:43;;;;;;;;;;;;;;;25.23;66.63;100745.09;7396696;19;1948;-41
2023/07/23 04:42:12;;;;;;;;;;;;;;;25.34;66.58;100757.38;7396061;19;1741;-41
2023/07/23 04:44:40;;;;;;;;;;;;;;;25.13;67.48;100771.50;7396416;19;1624;-41
2023/07/23 04:47:08;;;;;;;;;;;;;;;25.07;67.80;100775.75;7395930;19;1758;-41
2023/07/23 04:49:39;;;;;;;;;;;;;;;24.91;68.14;100779.38;7397230;19;1104;-41
2023/07/23 04:52:08;;;;;;;;;;;;;;;24.87;68.12;100769.91;7395909;19;1599;-41
2023/07/23 04:54:36;;;;;;;;;;;;;;;24.88;67.61;100771.59;7395061;19;1527;-42
2023/07/23 04:57:05;;;;;;;;;;;;;;;24.90;67.74;100791.19;7395678;19;1932;-41
2023/07/23 04:59:33;;;;;;;;;;;;;;;24.91;68.03;100789.31;7396317;19;1739;-41
2023/07/23 05:02:01;;;;;;;;;;;;;;;25.00;67.79;100788.28;7395700;19;1421;-41
2023/07/23 05:04:30;;;;;;;;;;;;;;;25.01;67.77;100782.72;7395224;19;1087;-41
2023/07/23 05:07:00;;;;;;;;;;;;;;;25.22;67.55;100788.56;7395065;19;1919;-41
2023/07/23 05:09:29;;;;;;;;;;;;;;;25.46;66.73;100776.78;7402165;19;1880;-41
2023/07/23 05:11:57;;;;;;;;;;;;;;;25.49;66.84;100781.84;7402867;19;1842;-41
2023/07/23 05:14:25;;;;;;;;;;;;;;;25.16;67.73;100771.97;7402637;19;1153;-41
2023/07/23 05:16:53;;;;;;;;;;;;;;;25.04;67.62;100794.19;7401230;19;1956;-41
2023/07/23 05:19:22;;;;;;;;;;;;;;;24.96;68.12;100792.38;7401240;19;1968;-41
2023/07/23 05:21:50;;;;;;;;;;;;;;;25.05;67.82;100788.63;7401961;19;1849;-41
2023/07/23 05:24:21;;;;;;;;;;;;;;;25.27;67.47;100797.84;7402466;19;1822;-41
2023/07/23 05:26:49;;;;;;;;;;;;;;;25.06;68.34;100803.81;7401786;19;2068;-41
2023/07/23 05:29:17;;;;;;;;;;;;;;;25.18;67.86;100791.59;7401740;19;1362;-41
2023/07/23 05:31:46;;;;;;;;;;;;;;;25.34;67.21;100795.28;7399626;19;1662;-41
2023/07/23 05:34:14;;;;;;;;;;;;;;;25.51;66.70;100801.47;7401118;19;1963;-41
2023/07/23 05:36:42;;;;;;;;;;;;;;;25.62;66.28;100809.16;7398982;19;1860;-41
2023/07/23 05:39:11;;;;;;;;;;;;;;;25.06;65.97;100797.56;7401417;19;1613;-40
2023/07/23 05:41:42;;;;;;;;;;;;;;;24.65;65.62;100800.38;7402587;19;1161;-40
2023/07/23 05:44:10;;;;;;;;;;;;;;;24.48;65.50;100797.69;7401749;19;1940;-40
2023/07/23 05:46:38;;;;;;;;;;;;;;;24.36;65.13;100820.69;7399440;19;1236;-40
2023/07/23 05:49:07;;;;;;;;;;;;;;;24.31;64.61;100804.97;7401277;19;1261;-40
2023/07/23 05:51:35;;;;;;;;;;;;;;;24.34;64.11;100815.44;7400109;19;1464;-40
2023/07/23 05:54:03;;;;;;;;;;;;;;;24.34;63.53;100812.72;7399450;19;1395;-41
2023/07/23 05:56:31;;;;;;;;;;;;;;;24.27;63.73;100800.06;7396516;19;1839;-40
2023/07/23 05:59:02;;;;;;;;;;;;;;;24.36;62.72;100824.22;7393537;19;1518;-40
2023/07/23 06:01:31;;;;;;;;;;;;;;;24.14;62.88;100814.94;7394969;19;1382;-42
2023/07/23 06:03:59;;;;;;;;;;;;;;;24.08;63.00;100802.09;7396086;19;1191;-40
2023/07/23 06:06:27;;;;;;;;;;;;;;;24.12;62.16;100795.34;7392712;19;1442;-40
2023/07/23 06:08:56;;;;;;;;;;;;;;;23.99;62.68;100813.91;7396685;19;1528;-40
2023/07/23 06:11:24;;;;;;;;;;;;;;;23.98;62.33;100823.88;7397699;19;1189;-40
2023/07/23 06:13:53;;;;;;;;;;;;;;;24.14;61.63;100817.63;7396999;19;1567;-40
2023/07/23 06:16:24;;;;;;;;;;;;;;;24.07;61.26;100840.91;7393830;19;1916;-40
2023/07/23 06:18:52;;;;;;;;;;;;;;;24.14;61.02;100833.00;7397319;19;1316;-40
2023/07/23 06:21:20;;;;;;;;;;;;;;;24.00;60.82;100827.25;7396364;19;1176;-40
2023/07/23 06:23:48;;;;;;;;;;;;;;;23.86;61.44;100825.22;7399039;19;1553;-40
2023/07/23 06:26:16;;;;;;;;;;;;;;;24.01;61.12;100825.38;7398228;19;1493;-40
2023/07/23 06:28:45;;;;;;;;;;;;;;;23.95;60.93;100834.16;7397992;19;1187;-40
2023/07/23 06:31:13;;;;;;;;;;;;;;;23.94;61.03;100846.81;7396468;19;1555;-40
2023/07/23 06:33:44;;;;;;;;;;;;;;;23.89;61.82;100845.63;7399246;19;1301;-40
2023/07/23 06:36:12;;;;;;;;;;;;;;;23.81;62.52;100838.34;7396075;19;1661;-40
2023/07/23 06:38:40;;;;;;;;;;;;;;;23.78;61.77;100836.00;7394694;19;1843;-40
2023/07/23 06:41:09;;;;;;;;;;;;;;;23.88;60.63;100846.66;7398331;19;1539;-41
2023/07/23 06:43:37;;;;;;;;;;;;;;;23.82;59.72;100862.50;7399400;19;1016;-40
2023/07/23 06:46:05;;;;;;;;;;;;;;;23.73;59.18;100854.50;7399015;19;1541;-40
2023/07/23 06:48:34;;;;;;;;;;;;;;;23.78;58.75;100853.03;7399337;19;1611;-40
2023/07/23 06:51:04;;;;;;;;;;;;;;;23.75;58.70;100858.72;7400239;19;1382;-40
2023/07/23 06:53:33;;;;;;;;;;;;;;;23.66;59.43;100856.19;7398893;19;1369;-40
2023/07/23 06:56:02;;;;;;;;;;;;;;;23.59;59.97;100837.09;7395685;19;1668;-40
2023/07/23 06:58:32;;;;;;;;;;;;;;;23.67;60.17;100852.47;7393355;19;1826;-40
2023/07/23 07:01:00;;;;;;;;;;;;;;;23.59;60.69;100847.88;7394302;19;1552;-40
2023/07/23 07:03:29;;;;;;;;;;;;;;;23.65;60.69;100844.53;7395278;19;1618;-40
2023/07/23 07:05:57;;;;;;;;;;;;;;;23.70;60.99;100834.09;7394034;19;1506;-40
2023/07/23 07:08:28;;;;;;;;;;;;;;;23.72;60.98;100840.16;7395428;19;1082;-40
2023/07/23 07:10:58;;;;;;;;;;;;;;;23.62;61.36;100836.78;7396944;19;1066;-40
2023/07/23 07:13:26;;;;;;;;;;;;;;;23.55;61.48;100830.31;7397246;19;1751;-40
2023/07/23 07:15:55;;;;;;;;;;;;;;;23.52;61.49;100836.06;7397761;19;1192;-40
2023/07/23 07:18:27;;;;;;;;;;;;;;;23.56;61.50;100856.31;7395040;19;1892;-40
2023/07/23 07:20:58;;;;;;;;;;;;;;;23.60;61.42;100855.81;7395671;19;1818;-40
2023/07/23 07:23:29;;;;;;;;;;;;;;;23.59;61.72;100837.09;7396148;19;1385;-40
2023/07/23 07:25:58;;;;;;;;;;;;;;;23.51;62.09;100851.38;7398987;19;1021;-40
2023/07/23 07:28:26;;;;;;;;;;;;;;;23.54;62.40;100856.47;7398294;19;1523;-40
2023/07/23 07:30:58;;;;;;;;;;;;;;;23.54;61.81;100844.84;7396113;19;1873;-40
2023/07/23 07:33:27;;;;;;;;;;;;;;;23.60;62.10;100855.81;7397573;19;1914;-40
2023/07/23 07:35:56;;;;;;;;;;;;;;;23.61;61.95;100857.50;7397211;19;1339;-40
2023/07/23 07:38:25;;;;;;;;;;;;;;;23.53;61.84;100848.53;7396688;19;1849;-40
2023/07/23 07:40:57;;;;;;;;;;;;;;;23.51;62.04;100854.09;7396777;19;1386;-40
2023/07/23 07:43:25;;;;;;;;;;;;;;;23.49;61.94;100857.97;7395220;19;1392;-40
2023/07/23 07:45:58;;;;;;;;;;;;;;;23.54;62.08;100859.19;7394930;19;1866;-40
2023/07/23 07:48:26;;;;;;;;;;;;;;;23.50;62.15;100863.22;7395925;19;1615;-40
2023/07/23 07:50:59;;;;;;;;;;;;;;;23.56;62.39;100862.56;7396459;19;1544;-40
2023/07/23 07:53:28;;;;;;;;;;;;;;;23.56;62.08;100864.41;7396489;19;1429;-40
2023/07/23 07:56:00;;;;;;;;;;;;;;;23.49;62.05;100847.19;7395450;19;1255;-40
2023/07/23 07:58:29;;;;;;;;;;;;;;;23.53;62.01;100870.97;7395047;19;1849;-40
2023/07/23 08:00:57;;;;;;;;;;;;;;;23.55;61.82;100874.34;7394519;19;1655;-40
2023/07/23 08:03:28;;;;;;;;;;;;;;;23.56;61.80;100872.53;7395476;19;1202;-40
2023/07/23 08:05:56;;;;;;;;;;;;;;;23.55;61.98;100862.72;7394814;19;1588;-40
2023/07/23 08:08:26;;;;;;;;;;;;;;;23.57;61.86;100882.28;7395962;19;1271;-40
2023/07/23 08:10:55;;;;;;;;;;;;;;;23.59;61.74;100874.88;7395869;19;1221;-40
2023/07/23 08:13:26;;;;;;;;;;;;;;;23.68;61.69;100873.91;7395806;19;1787;-40
2023/07/23 08:15:55;;;;;;;;;;;;;;;23.57;62.18;100872.34;7395700;19;1269;-40
2023/07/23 08:18:24;;;;;;;;;;;;;;;23.58;61.89;100876.75;7392901;19;1850;-40
2023/07/23 08:20:54;;;;;;;;;;;;;;;23.61;62.51;100870.16;7393205;19;1207;-40
2023/07/23 08:23:23;;;;;;;;;;;;;;;23.58;62.37;100867.81;7396410;19;1370;-40
2023/07/23 08:25:53;;;;;;;;;;;;;;;23.55;62.13;100870.81;7396487;19;955;-40
2023/07/23 08:28:23;;;;;;;;;;;;;;;23.67;61.13;100857.88;7397197;19;1013;-40
2023/07/23 08:30:55;;;;;;;;;;;;;;;23.55;60.78;100868.13;7395900;19;1508;-40
2023/07/23 08:33:24;;;;;;;;;;;;;;;23.66;60.21;100875.94;7395923;19;1523;-40
2023/07/23 08:35:53;;;;;;;;;;;;;;;23.61;60.14;100878.25;7395517;19;1369;-40
2023/07/23 08:38:22;;;;;;;;;;;;;;;23.69;59.29;100878.28;7394876;19;1854;-40
2023/07/23 08:40:52;;;;;;;;;;;;;;;23.67;58.79;100876.75;7395614;19;1877;-40
2023/07/23 08:43:33;;;;;;;;;;;;;;;23.49;58.63;100875.00;7399331;19;1014;-41
2023/07/23 08:46:13;;;;;;;;;;;;;;;23.49;60.43;100893.06;7404265;19;1789;-41
2023/07/23 08:48:56;;;;;;;;;;;;;;;23.36;61.02;100880.88;7403266;19;1492;-40
2023/07/23 08:51:26;;;;;;;;;;;;;;;23.50;60.75;100886.66;7400205;19;2227;-40
2023/07/23 08:53:55;;;;;;;;;;;;;;;23.53;60.73;100883.63;7402639;19;1485;-41
2023/07/23 08:56:23;;;;;;;;;;;;;;;23.51;60.75;100877.53;7399751;19;1975;-41
2023/07/23 08:58:52;;;;;;;;;;;;;;;23.47;60.93;100870.78;7400359;19;1838;-41
2023/07/23 09:01:24;;;;;;;;;;;;;;;23.46;60.80;100878.03;7402712;19;1579;-41
2023/07/23 09:03:52;;;;;;;;;;;;;;;23.40;61.06;100876.84;7401842;19;1452;-41
2023/07/23 09:06:22;;;;;;;;;;;;;;;23.49;61.08;100884.97;7401321;19;1217;-41
2023/07/23 09:08:52;;;;;;;;;;;;;;;23.43;61.44;100881.06;7401182;19;1260;-40
2023/07/23 09:11:21;;;;;;;;;;;;;;;23.47;61.50;100876.19;7401535;19;1286;-41
2023/07/23 09:13:50;;;;;;;;;;;;;;;23.45;61.62;100876.34;7402859;19;1162;-41
2023/07/23 09:16:25;;;;;;;;;;;;;;;23.46;61.46;100875.34;7401010;19;1215;-41
2023/07/23 09:18:56;;;;;;;;;;;;;;;23.49;61.32;100882.25;7399009;19;1864;-41
2023/07/23 09:21:25;;;;;;;;;;;;;;;23.47;61.27;100881.59;7401515;19;1874;-41
2023/07/23 09:23:53;;;;;;;;;;;;;;;23.49;61.40;100887.66;7401201;19;1541;-41
2023/07/23 09:26:23;;;;;;;;;;;;;;;23.47;61.44;100890.50;7401869;19;1606;-41
2023/07/23 09:28:52;;;;;;;;;;;;;;;23.51;61.40;100883.78;7400961;19;1397;-41
2023/07/23 09:31:27;;;;;;;;;;;;;;;23.55;60.99;100895.09;7400044;19;1564;-40
2023/07/23 09:33:59;;;;;;;;;;;;;;;23.51;61.10;100877.53;7401804;19;1826;-41
2023/07/23 09:36:28;;;;;;;;;;;;;;;23.42;61.21;100887.47;7402254;19;1533;-41
2023/07/23 09:38:57;;;;;;;;;;;;;;;23.47;61.15;100884.28;7399251;19;1838;-41
2023/07/23 09:41:29;;;;;;;;;;;;;;;23.51;61.29;100888.34;7400964;19;1467;-40
2023/07/23 09:44:00;;;;;;;;;;;;;;;23.50;61.19;100875.88;7401562;19;1389;-41
2023/07/23 09:46:28;;;;;;;;;;;;;;;23.52;61.15;100873.84;7402256;19;1056;-40
2023/07/23 09:48:59;;;;;;;;;;;;;;;23.55;60.73;100873.50;7401358;19;1888;-41
2023/07/23 09:51:27;;;;;;;;;;;;;;;23.51;60.84;100877.53;7401062;19;2023;-41
2023/07/23 09:53:56;;;;;;;;;;;;;;;23.57;60.41;100876.91;7399582;19;1590;-40
2023/07/23 09:56:24;;;;;;;;;;;;;;;23.42;60.42;100872.13;7400999;19;1724;-41
2023/07/23 09:58:53;;;;;;;;;;;;;;;23.51;60.40;100882.94;7398742;19;1844;-41
2023/07/23 10:01:22;;;;;;;;;;;;;;;23.51;59.58;100869.44;7400462;19;1235;-40
2023/07/23 10:03:53;;;;;;;;;;;;;;;23.56;59.48;100902.22;7400572;19;1449;-41
2023/07/23 10:06:24;;;;;;;;;;;;;;;23.40;59.34;100876.00;7400326;19;1473;-41
2023/07/23 10:08:53;;;;;;;;;;;;;;;23.39;59.63;100885.91;7399553;19;1373;-41
2023/07/23 10:11:22;;;;;;;;;;;;;;;23.38;59.91;100881.53;7400689;19;1735;-41
2023/07/23 10:13:51;;;;;;;;;;;;;;;23.40;60.16;100876.00;7401621;19;1000;-40
2023/07/23 10:16:21;;;;;;;;;;;;;;;23.36;60.46;100880.88;7400248;19;1599;-41
2023/07/23 10:18:51;;;;;;;;;;;;;;;23.44;60.57;100880.06;7397770;19;1838;-40
2023/07/23 10:21:20;;;;;;;;;;;;;;;23.41;60.72;100877.66;7400385;19;1476;-40
2023/07/23 10:23:57;;;;;;;;;;;;;;;23.42;60.66;100868.59;7399103;19;1484;-41
2023/07/23 10:26:26;;;;;;;;;;;;;;;23.38;61.04;100872.63;7398884;19;1751;-41
2023/07/23 10:28:58;;;;;;;;;;;;;;;23.47;60.78;100862.69;7392946;19;1466;-41
2023/07/23 10:31:28;;;;;;;;;;;;;;;23.43;60.97;100846.81;7397634;19;1723;-41
2023/07/23 10:33:57;;;;;;;;;;;;;;;23.39;61.04;100853.53;7398713;19;1476;-41
2023/07/23 10:36:25;;;;;;;;;;;;;;;23.36;61.07;100848.47;7395570;19;1533;-41
2023/07/23 10:39:08;;;;;;;;;;;;;;;23.37;60.97;100860.94;7393478;19;1858;-41
2023/07/23 10:41:53;;;;;;;;;;;;;;;23.37;61.19;100860.13;7398288;19;1596;-41
2023/07/23 10:44:30;;;;;;;;;;;;;;;23.30;60.85;100859.06;7398386;19;1226;-41
2023/07/23 10:46:58;;;;;;;;;;;;;;;23.35;60.97;100857.56;7398642;19;1457;-42
2023/07/23 10:49:29;;;;;;;;;;;;;;;23.33;61.10;100847.97;7397689;19;1848;-40
2023/07/23 10:52:13;;;;;;;;;;;;;;;23.39;61.00;100858.94;7396184;19;1742;-41
2023/07/23 10:54:41;;;;;;;;;;;;;;;23.40;60.84;100855.25;7398989;19;1860;-41
2023/07/23 10:57:24;;;;;;;;;;;;;;;23.46;60.55;100847.50;7398788;19;1034;-40
2023/07/23 10:59:55;;;;;;;;;;;;;;;23.46;60.58;100855.59;7396119;19;1862;-40
2023/07/23 11:02:26;;;;;;;;;;;;;;;23.40;60.65;100847.16;7398332;19;1927;-41
2023/07/23 11:04:58;;;;;;;;;;;;;;;23.39;60.58;100856.25;7399481;19;1802;-41
2023/07/23 11:07:28;;;;;;;;;;;;;;;23.41;60.72;100839.88;7397041;19;1416;-41
2023/07/23 11:09:57;;;;;;;;;;;;;;;23.43;60.82;100843.28;7397483;19;1766;-41
2023/07/23 11:12:28;;;;;;;;;;;;;;;23.40;60.98;100852.53;7397727;19;1373;-41
2023/07/23 11:14:56;;;;;;;;;;;;;;;23.45;60.57;100857.44;7397780;19;1783;-41
2023/07/23 11:17:26;;;;;;;;;;;;;;;23.43;60.56;100838.72;7398645;19;1735;-40
2023/07/23 11:19:55;;;;;;;;;;;;;;;23.41;60.54;100865.00;7395330;19;1863;-41
2023/07/23 11:22:23;;;;;;;;;;;;;;;23.43;60.22;100865.69;7397585;19;1559;-41
2023/07/23 11:24:51;;;;;;;;;;;;;;;23.47;60.10;100865.38;7397209;19;1850;-41
2023/07/23 11:27:20;;;;;;;;;;;;;;;23.43;59.88;100875.66;7397119;19;1465;-40
2023/07/23 11:29:50;;;;;;;;;;;;;;;23.39;59.81;100858.94;7397291;19;1480;-41
2023/07/23 11:32:19;;;;;;;;;;;;;;;23.45;59.81;100872.81;7397194;19;1725;-41
2023/07/23 11:34:47;;;;;;;;;;;;;;;23.42;59.66;100873.97;7397051;19;1802;-41
2023/07/23 11:37:17;;;;;;;;;;;;;;;23.36;59.91;100885.44;7396964;19;1692;-41
2023/07/23 11:39:50;;;;;;;;;;;;;;;23.33;60.01;100897.38;7394391;19;1841;-41
2023/07/23 11:42:19;;;;;;;;;;;;;;;23.26;60.38;100881.97;7395203;19;1833;-41
2023/07/23 11:45:04;;;;;;;;;;;;;;;23.28;60.44;100886.22;7397508;19;1808;-41
2023/07/23 11:47:47;;;;;;;;;;;;;;;23.35;60.99;100865.66;7397684;19;1730;-41
2023/07/23 11:50:16;;;;;;;;;;;;;;;23.42;61.57;100874.81;7396014;19;1735;-41
2023/07/23 11:52:44;;;;;;;;;;;;;;;23.46;62.26;100869.06;7397504;19;1726;-41
2023/07/23 11:55:22;;;;;;;;;;;;;;;23.46;62.55;100871.78;7396245;19;1838;-41
2023/07/23 11:57:53;;;;;;;;;;;;;;;23.55;62.90;100884.31;7396974;19;1038;-41
2023/07/23 12:00:28;;;;;;;;;;;;;;;23.52;63.14;100879.25;7393798;19;1913;-41
2023/07/23 12:03:00;;;;;;;;;;;;;;;23.51;63.71;100862.19;7396749;19;1956;-41
2023/07/23 12:05:28;;;;;;;;;;;;;;;23.49;63.95;100884.97;7396850;19;1846;-41
2023/07/23 12:07:56;;;;;;;;;;;;;;;23.52;64.15;100887.34;7395649;19;1631;-41
2023/07/23 12:10:27;;;;;;;;;;;;;;;23.58;64.16;100884.84;7397258;19;1730;-41
2023/07/23 12:12:56;;;;;;;;;;;;;;;23.63;64.10;100871.72;7393807;19;1474;-41
2023/07/23 12:15:24;;;;;;;;;;;;;;;23.60;64.19;100871.19;7396693;19;1333;-41
2023/07/23 12:17:53;;;;;;;;;;;;;;;23.65;64.43;100874.22;7404422;19;1854;-41
2023/07/23 12:20:26;;;;;;;;;;;;;;;23.60;63.09;100881.97;7406297;19;1844;-41
2023/07/23 12:22:55;;;;;;;;;;;;;;;23.39;63.13;100858.94;7409524;19;1384;-43
2023/07/23 12:25:23;;;;;;;;;;;;;;;23.42;63.49;100874.81;7407171;19;2159;-41
2023/07/23 12:27:52;;;;;;;;;;;;;;;23.58;63.55;100874.03;7410624;19;2270;-41
2023/07/23 12:30:20;;;;;;;;;;;;;;;23.62;63.76;100872.69;7405276;19;2024;-41
2023/07/23 12:32:49;;;;;;;;;;;;;;;23.72;63.62;100894.16;7407298;19;1873;-41
2023/07/23 12:35:17;;;;;;;;;;;;;;;23.79;62.71;100886.28;7401965;19;2224;-41
2023/07/23 12:37:48;;;;;;;;;;;;;;;23.65;63.42;100867.97;7401584;19;1762;-41
2023/07/23 12:40:18;;;;;;;;;;;;;;;23.70;62.75;100869.19;7398298;19;2118;-44
2023/07/23 12:42:46;;;;;;;;;;;;;;;23.75;62.54;100872.22;7405314;19;1876;-41
2023/07/23 12:45:14;;;;;;;;;;;;;;;23.71;63.35;100876.25;7407244;19;1572;-41
2023/07/23 12:47:43;;;;;;;;;;;;;;;23.67;62.18;100863.25;7403599;19;2221;-41
2023/07/23 12:50:11;;;;;;;;;;;;;;;23.73;62.40;100868.00;7410043;19;2155;-41
2023/07/23 12:52:40;;;;;;;;;;;;;;;23.65;62.58;100863.41;7410203;19;1906;-41
2023/07/23 12:55:11;;;;;;;;;;;;;;;23.70;61.95;100860.25;7408077;19;2167;-41
2023/07/23 12:57:39;;;;;;;;;;;;;;;23.66;61.42;100870.53;7409131;19;2453;-50
2023/07/23 13:00:08;;;;;;;;;;;;;;;23.55;61.12;100865.41;7407696;19;1881;-41